Time;durP1;ratioP1;P1;durP2;ratioP2;P2;SDS_P1;SDS_P2;PMS_P1;PMS_P2;Temp;Humidity;BMP_temperature;BMP_pressure;BME280_temperature;BME280_humidity;BME280_pressure;Samples;Min_cycle;Max_cycle;Signal;HPM_P1;HPM_P2
2022/11/21 00:00:15;;;;;;;0.82;0.30;;;;;;;7.97;65.04;98324.53;5275704;28;20063;-74
2022/11/21 00:03:05;;;;;;;3.13;0.52;;;;;;;7.86;64.62;98330.81;5267115;28;20182;-74
2022/11/21 00:05:55;;;;;;;1.15;0.45;;;;;;;7.88;65.38;98320.97;5273094;28;20627;-74
2022/11/21 00:08:45;;;;;;;3.42;0.52;;;;;;;7.74;65.24;98295.00;5279417;28;20124;-74
2022/11/21 00:11:36;;;;;;;2.50;0.47;;;;;;;7.79;64.62;98321.00;5277389;28;20421;-74
2022/11/21 00:14:26;;;;;;;1.10;0.50;;;;;;;7.66;65.78;98319.47;5274841;28;20409;-74
2022/11/21 00:17:16;;;;;;;1.20;0.40;;;;;;;7.50;66.30;98304.22;5266019;28;20048;-75
2022/11/21 00:20:07;;;;;;;1.63;0.50;;;;;;;7.38;66.42;98275.50;5275820;28;20104;-75
2022/11/21 00:22:57;;;;;;;1.88;0.55;;;;;;;7.51;67.39;98308.53;5274116;28;20074;-75
2022/11/21 00:25:47;;;;;;;2.50;0.98;;;;;;;7.65;66.43;98303.78;5275648;28;20066;-75
2022/11/21 00:28:37;;;;;;;3.20;0.38;;;;;;;8.10;64.83;98297.81;5278784;28;20063;-75
2022/11/21 00:31:27;;;;;;;2.63;0.57;;;;;;;8.18;65.65;98293.47;5272862;28;20048;-75
2022/11/21 00:34:17;;;;;;;1.33;0.60;;;;;;;8.07;64.32;98287.53;5274198;28;20052;-75
2022/11/21 00:37:06;;;;;;;1.02;0.43;;;;;;;7.98;65.25;98287.44;5276752;28;20161;-75
2022/11/21 00:39:56;;;;;;;1.70;0.50;;;;;;;8.06;65.06;98291.16;5267673;28;20710;-74
2022/11/21 00:42:46;;;;;;;1.33;0.40;;;;;;;8.21;63.75;98282.63;5279491;28;20092;-75
2022/11/21 00:45:36;;;;;;;0.80;0.45;;;;;;;8.07;64.59;98285.72;5273933;28;20148;-74
2022/11/21 00:48:28;;;;;;;1.33;0.40;;;;;;;8.03;64.29;98286.19;5272750;28;20055;-75
2022/11/21 00:51:19;;;;;;;4.25;0.50;;;;;;;8.14;64.02;98278.06;5276675;28;20189;-75
2022/11/21 00:54:09;;;;;;;2.90;0.40;;;;;;;7.91;65.19;98270.53;5276299;28;20570;-75
2022/11/21 00:56:59;;;;;;;0.75;0.32;;;;;;;7.92;65.20;98268.72;5269300;28;20541;-74
2022/11/21 00:59:49;;;;;;;0.60;0.30;;;;;;;7.74;65.04;98258.91;5266771;28;20132;-75
2022/11/21 01:02:39;;;;;;;0.93;0.35;;;;;;;7.79;65.75;98266.41;5278873;28;20072;-74
2022/11/21 01:05:32;;;;;;;2.28;0.47;;;;;;;7.68;65.52;98248.09;5274324;28;20498;-74
2022/11/21 01:08:22;;;;;;;1.77;0.40;;;;;;;7.91;64.56;98257.34;5276307;28;20070;-74
2022/11/21 01:11:17;;;;;;;1.13;0.30;;;;;;;7.32;66.00;98266.38;5273416;28;20130;-74
2022/11/21 01:14:07;;;;;;;0.17;0.17;;;;;;;7.35;66.31;98267.88;5270171;28;20105;-74
2022/11/21 01:16:57;;;;;;;1.60;0.50;;;;;;;7.33;66.20;98270.66;5271632;28;20514;-74
2022/11/21 01:19:47;;;;;;;0.70;0.40;;;;;;;7.71;64.78;98263.63;5274586;28;20047;-74
2022/11/21 01:22:38;;;;;;;1.13;0.28;;;;;;;7.93;64.73;98257.19;5274956;28;20047;-75
2022/11/21 01:25:28;;;;;;;1.95;0.50;;;;;;;8.10;64.07;98266.13;5272055;28;20139;-75
2022/11/21 01:28:18;;;;;;;3.30;0.50;;;;;;;7.36;66.92;98280.09;5275617;28;20066;-74
2022/11/21 01:31:19;;;;;;;1.45;0.32;;;;;;;7.62;66.24;98265.34;5272698;28;20102;-74
2022/11/21 01:34:10;;;;;;;0.55;0.40;;;;;;;7.31;68.22;98269.97;5271423;28;20051;-74
2022/11/21 01:37:01;;;;;;;2.75;0.65;;;;;;;7.47;68.17;98254.38;5274137;28;20071;-74
2022/11/21 01:39:51;;;;;;;2.45;0.90;;;;;;;7.42;69.02;98255.81;5266539;28;20052;-75
2022/11/21 01:42:52;;;;;;;2.13;0.70;;;;;;;7.37;68.76;98264.13;5274569;28;20044;-75
2022/11/21 01:45:50;;;;;;;2.05;0.65;;;;;;;7.27;69.85;98255.41;5272392;28;20042;-75
2022/11/21 01:49:01;;;;;;;2.60;0.55;;;;;;;7.40;71.23;98269.13;5276383;28;20501;-74
2022/11/21 01:51:57;;;;;;;4.15;1.38;;;;;;;7.18;69.79;98253.59;5254942;28;20043;-74
2022/11/21 01:54:47;;;;;;;5.72;1.33;;;;;;;7.35;69.87;98268.72;5276896;28;20055;-75
2022/11/21 01:57:47;;;;;;;5.28;1.13;;;;;;;7.59;68.94;98259.53;5277792;28;20052;-74
2022/11/21 02:00:41;;;;;;;3.75;1.00;;;;;;;7.59;68.65;98260.34;5272705;28;20063;-75
2022/11/21 02:03:36;;;;;;;1.60;0.65;;;;;;;7.59;68.88;98246.34;5276052;28;20130;-75
2022/11/21 02:06:26;;;;;;;2.90;0.73;;;;;;;7.59;69.64;98260.34;5275135;28;20052;-74
2022/11/21 02:09:17;;;;;;;1.77;0.40;;;;;;;7.55;69.87;98264.25;5274483;28;20044;-74
2022/11/21 02:12:13;;;;;;;3.40;0.65;;;;;;;7.59;69.26;98257.72;5274149;28;20048;-74
2022/11/21 02:15:03;;;;;;;4.75;0.70;;;;;;;7.35;69.69;98247.63;5277804;28;20476;-74
2022/11/21 02:17:54;;;;;;;4.28;0.50;;;;;;;7.63;69.97;98260.88;5272715;28;20551;-74
2022/11/21 02:20:52;;;;;;;2.00;0.60;;;;;;;7.67;69.31;98255.16;5274670;28;20445;-74
2022/11/21 02:23:55;;;;;;;3.78;0.50;;;;;;;7.66;69.28;98255.31;5273991;28;20077;-75
2022/11/21 02:26:49;;;;;;;6.00;1.23;;;;;;;7.66;69.83;98256.16;5267936;28;20056;-74
2022/11/21 02:29:39;;;;;;;4.05;1.17;;;;;;;7.69;69.30;98252.41;5274852;28;20406;-74
2022/11/21 02:32:36;;;;;;;10.88;2.58;;;;;;;7.66;69.71;98250.88;5273704;28;20070;-74
2022/11/21 02:35:26;;;;;;;7.97;2.10;;;;;;;7.66;69.94;98242.97;5270546;28;20059;-75
2022/11/21 02:38:21;;;;;;;4.10;0.98;;;;;;;7.50;71.27;98243.56;5275714;28;20424;-74
2022/11/21 02:41:25;;;;;;;2.40;0.63;;;;;;;7.60;70.28;98240.06;5273153;28;20121;-74
2022/11/21 02:44:23;;;;;;;4.35;1.05;;;;;;;7.59;70.08;98227.88;5274403;28;20052;-75
2022/11/21 02:47:13;;;;;;;9.45;1.77;;;;;;;7.68;69.84;98226.97;5275325;28;20104;-74
2022/11/21 02:50:15;;;;;;;6.28;1.42;;;;;;;7.66;70.27;98239.50;5274744;28;20055;-75
2022/11/21 02:53:07;;;;;;;2.90;1.30;;;;;;;7.59;69.60;98228.69;5270625;28;20097;-74
2022/11/21 02:55:58;;;;;;;6.87;2.00;;;;;;;7.51;70.14;98232.03;5272734;28;20124;-74
2022/11/21 02:58:48;;;;;;;2.17;1.02;;;;;;;7.50;68.95;98225.09;5275086;28;20513;-74
2022/11/21 03:01:38;;;;;;;5.25;1.48;;;;;;;7.51;68.76;98232.03;5281578;28;20685;-75
2022/11/21 03:04:29;;;;;;;2.50;0.60;;;;;;;7.21;70.56;98230.41;5275958;28;20417;-75
2022/11/21 03:07:19;;;;;;;3.63;0.40;;;;;;;7.62;68.24;98223.13;5279966;28;20047;-75
2022/11/21 03:10:10;;;;;;;3.47;0.47;;;;;;;7.28;68.46;98218.38;5276756;28;20050;-74
2022/11/21 03:13:00;;;;;;;0.77;0.20;;;;;;;7.11;69.66;98221.69;5272701;28;20106;-75
2022/11/21 03:15:50;;;;;;;0.98;0.30;;;;;;;7.27;68.15;98213.22;5270988;28;20067;-74
2022/11/21 03:18:40;;;;;;;0.68;0.30;;;;;;;7.24;68.07;98211.69;5278022;28;20051;-75
2022/11/21 03:21:30;;;;;;;0.55;0.30;;;;;;;7.25;67.71;98204.59;5274256;28;20494;-74
2022/11/21 03:24:21;;;;;;;0.25;0.17;;;;;;;6.91;68.67;98196.34;5281453;28;20418;-75
2022/11/21 03:27:11;;;;;;;0.60;0.10;;;;;;;7.11;68.54;98210.31;5274526;28;20067;-74
2022/11/21 03:30:00;;;;;;;0.98;0.20;;;;;;;7.11;68.16;98200.59;5276456;28;20421;-75
2022/11/21 03:32:54;;;;;;;0.17;0.10;;;;;;;6.84;69.70;98206.59;5269942;28;20127;-74
2022/11/21 03:35:44;;;;;;;2.45;0.30;;;;;;;6.91;68.62;98202.44;5276431;28;20048;-75
2022/11/21 03:38:34;;;;;;;2.95;0.20;;;;;;;6.85;69.88;98205.63;5275200;28;20048;-74
2022/11/21 03:41:28;;;;;;;2.28;0.30;;;;;;;6.45;71.94;98190.78;5279316;28;20061;-75
2022/11/21 03:44:18;;;;;;;1.33;0.30;;;;;;;6.88;69.42;98181.63;5278084;28;20051;-74
2022/11/21 03:47:08;;;;;;;0.40;0.20;;;;;;;7.21;68.47;98192.69;5279338;28;20074;-74
2022/11/21 03:49:58;;;;;;;2.47;0.22;;;;;;;6.96;69.25;98200.22;5276095;28;20054;-74
2022/11/21 03:52:48;;;;;;;0.50;0.20;;;;;;;6.89;69.59;98198.28;5270681;28;20058;-75
2022/11/21 03:55:38;;;;;;;1.58;0.40;;;;;;;6.75;69.08;98202.16;5276313;28;20184;-75
2022/11/21 03:58:27;;;;;;;0.73;0.20;;;;;;;6.91;69.08;98168.19;5271049;28;20429;-75
2022/11/21 04:01:18;;;;;;;0.40;0.30;;;;;;;7.12;68.14;98198.78;5272634;28;20055;-75
2022/11/21 04:04:08;;;;;;;0.28;0.20;;;;;;;7.13;68.63;98196.03;5278415;28;20047;-74
2022/11/21 04:06:58;;;;;;;0.75;0.30;;;;;;;7.06;69.00;98195.78;5273280;28;20040;-74
2022/11/21 04:09:49;;;;;;;0.82;0.43;;;;;;;6.92;69.60;98161.09;5275320;28;20681;-75
2022/11/21 04:12:39;;;;;;;0.57;0.20;;;;;;;7.10;68.33;98177.03;5273704;28;20192;-75
2022/11/21 04:15:29;;;;;;;1.10;0.40;;;;;;;7.35;67.99;98194.03;5278146;28;20059;-75
2022/11/21 04:18:19;;;;;;;0.50;0.30;;;;;;;7.24;69.03;98177.41;5277949;28;20062;-74
2022/11/21 04:21:09;;;;;;;0.20;0.20;;;;;;;7.49;68.90;98191.78;5271494;28;20043;-74
2022/11/21 04:23:59;;;;;;;0.80;0.22;;;;;;;7.36;69.08;98182.53;5276237;28;20043;-75
2022/11/21 04:26:49;;;;;;;0.50;0.40;;;;;;;7.53;67.41;98185.25;5274064;28;20536;-75
2022/11/21 04:29:39;;;;;;;0.30;0.20;;;;;;;7.77;66.25;98186.53;5279091;28;20055;-75
2022/11/21 04:32:29;;;;;;;2.33;0.73;;;;;;;7.64;68.12;98178.13;5272550;28;20494;-75
2022/11/21 04:35:19;;;;;;;2.95;0.80;;;;;;;7.60;68.33;98177.56;5273632;28;20152;-75
2022/11/21 04:38:10;;;;;;;2.15;0.70;;;;;;;7.30;68.73;98173.38;5278411;28;20054;-75
2022/11/21 04:41:00;;;;;;;1.08;0.40;;;;;;;7.44;68.89;98186.09;5276062;28;20051;-75
2022/11/21 04:43:51;;;;;;;1.42;0.40;;;;;;;7.32;69.17;98168.81;5277087;28;20050;-75
2022/11/21 04:46:41;;;;;;;0.57;0.30;;;;;;;7.54;68.36;98171.06;5278572;28;20062;-74
2022/11/21 04:49:30;;;;;;;0.90;0.40;;;;;;;7.60;68.41;98182.84;5277254;28;20546;-75
2022/11/21 04:52:20;;;;;;;0.65;0.40;;;;;;;7.42;69.47;98188.06;5274634;28;20405;-75
2022/11/21 04:55:10;;;;;;;2.08;0.43;;;;;;;7.39;70.32;98190.97;5276970;28;20054;-75
2022/11/21 04:58:00;;;;;;;0.80;0.47;;;;;;;7.40;70.39;98184.72;5277133;28;20106;-75
2022/11/21 05:00:50;;;;;;;5.50;0.50;;;;;;;7.26;70.61;98193.09;5274470;28;20041;-75
2022/11/21 05:03:41;;;;;;;5.25;0.70;;;;;;;7.48;70.71;98194.53;5277772;28;20670;-75
2022/11/21 05:06:31;;;;;;;2.22;0.70;;;;;;;7.76;69.47;98166.41;5272348;28;20118;-75
2022/11/21 05:09:21;;;;;;;2.95;0.82;;;;;;;7.30;70.84;98187.38;5278107;28;20156;-75
2022/11/21 05:15:21;;;;;;;7.82;0.80;;;;;;;7.42;70.55;98172.25;5277948;28;20112;-74
2022/11/21 05:18:13;;;;;;;2.08;0.90;;;;;;;7.22;70.91;98173.28;5281078;28;20066;-75
2022/11/21 05:21:04;;;;;;;5.28;0.90;;;;;;;7.26;71.55;98164.09;5271798;28;20059;-74
2022/11/21 05:23:55;;;;;;;6.35;1.30;;;;;;;7.11;73.27;98186.59;5273171;28;20042;-74
2022/11/21 05:26:45;;;;;;;2.63;1.10;;;;;;;7.49;72.19;98185.69;5278980;28;20048;-74
2022/11/21 05:29:35;;;;;;;5.47;1.33;;;;;;;7.82;70.47;98178.19;5274989;28;20056;-74
2022/11/21 05:32:25;;;;;;;5.57;1.35;;;;;;;7.51;71.86;98183.72;5274311;28;20192;-74
2022/11/21 05:35:15;;;;;;;8.68;1.77;;;;;;;7.71;70.71;98181.81;5273474;28;20489;-74
2022/11/21 05:38:06;;;;;;;7.95;1.65;;;;;;;7.59;70.50;98186.47;5274067;28;20047;-75
2022/11/21 05:40:56;;;;;;;7.82;1.27;;;;;;;7.33;71.45;98169.63;5274723;28;20059;-75
2022/11/21 05:43:46;;;;;;;6.22;1.30;;;;;;;7.51;71.45;98195.09;5275199;28;20066;-75
2022/11/21 05:46:36;;;;;;;8.10;1.67;;;;;;;6.76;73.35;98195.94;5272842;28;20161;-75
2022/11/21 05:49:26;;;;;;;10.63;1.90;;;;;;;6.74;73.84;98201.34;5273574;28;20409;-75
2022/11/21 05:52:16;;;;;;;9.98;1.67;;;;;;;6.73;75.05;98199.69;5275509;28;20176;-74
2022/11/21 05:55:06;;;;;;;4.95;1.67;;;;;;;7.72;71.46;98202.00;5270854;28;20047;-76
2022/11/21 05:57:59;;;;;;;5.65;1.52;;;;;;;7.79;71.93;98208.34;5266234;28;20122;-76
2022/11/21 06:00:55;;;;;;;14.05;1.92;;;;;;;7.86;70.17;98187.47;5272754;28;20054;-76
2022/11/21 06:03:49;;;;;;;11.35;1.92;;;;;;;8.14;69.33;98201.47;5272941;28;20047;-71
2022/11/21 06:06:40;;;;;;;7.90;1.90;;;;;;;7.16;72.05;98200.19;5270417;28;20058;-71
2022/11/21 06:09:30;;;;;;;3.72;1.75;;;;;;;7.51;71.40;98202.19;5272323;28;20051;-74
2022/11/21 06:12:20;;;;;;;8.32;1.58;;;;;;;6.98;72.99;98200.06;5276863;28;20050;-77
2022/11/21 06:15:14;;;;;;;7.82;1.52;;;;;;;7.73;69.70;98203.63;5276722;28;20070;-73
2022/11/21 06:18:04;;;;;;;13.07;1.88;;;;;;;7.64;69.39;98173.66;5270806;28;20059;-76
2022/11/21 06:21:00;;;;;;;7.07;1.63;;;;;;;7.56;70.26;98173.56;5269528;28;20467;-75
2022/11/21 06:23:52;;;;;;;5.35;1.98;;;;;;;7.71;68.61;98179.19;5276154;28;20066;-75
2022/11/21 06:26:42;;;;;;;8.27;2.45;;;;;;;7.63;69.16;98195.75;5278624;28;20050;-74
2022/11/21 06:29:32;;;;;;;9.30;1.83;;;;;;;7.77;69.04;98205.00;5280200;28;20048;-74
2022/11/21 06:32:22;;;;;;;2.28;1.27;;;;;;;7.85;68.53;98197.22;5286253;28;20052;-76
2022/11/21 06:35:12;;;;;;;3.78;1.20;;;;;;;7.89;68.03;98208.31;5286139;28;20148;-72
2022/11/21 06:38:03;;;;;;;4.53;1.15;;;;;;;7.61;69.33;98210.88;5284133;28;20399;-75
2022/11/21 06:40:53;;;;;;;6.40;2.22;;;;;;;7.29;69.06;98206.00;5275952;28;20516;-74
2022/11/21 06:43:44;;;;;;;8.35;1.60;;;;;;;7.12;70.46;98204.06;5283421;28;20414;-74
2022/11/21 06:46:33;;;;;;;8.43;1.60;;;;;;;7.67;68.86;98215.59;5282944;28;20425;-75
2022/11/21 06:49:23;;;;;;;6.85;1.55;;;;;;;7.65;69.27;98214.06;5281810;28;20418;-74
2022/11/21 06:52:16;;;;;;;9.73;1.50;;;;;;;7.70;68.94;98204.75;5279083;28;20059;-72
2022/11/21 06:55:09;;;;;;;6.28;1.73;;;;;;;7.84;68.86;98223.72;5277077;28;20149;-72
2022/11/21 06:57:59;;;;;;;5.43;1.65;;;;;;;7.70;68.47;98225.88;5271923;28;20067;-71
2022/11/21 07:00:50;;;;;;;9.93;1.80;;;;;;;7.67;69.20;98230.59;5275127;28;20494;-70
2022/11/21 07:03:40;;;;;;;10.18;2.08;;;;;;;7.52;70.05;98230.25;5276244;28;20047;-70
2022/11/21 07:06:30;;;;;;;5.75;1.65;;;;;;;7.58;69.93;98226.19;5277266;28;20488;-71
2022/11/21 07:09:20;;;;;;;10.35;1.63;;;;;;;7.68;69.18;98226.97;5283434;28;20570;-70
2022/11/21 07:15:34;;;;;;;5.15;1.52;;;;;;;7.76;67.93;98219.19;5277306;28;20097;-69
2022/11/21 07:18:25;;;;;;;10.25;1.92;;;;;;;7.64;69.78;98215.88;5278972;28;20716;-70
2022/11/21 07:21:15;;;;;;;11.35;1.80;;;;;;;7.83;68.62;98220.25;5283050;28;20074;-70
2022/11/21 07:24:05;;;;;;;8.10;2.05;;;;;;;7.63;69.56;98211.59;5279245;28;20044;-70
2022/11/21 07:26:56;;;;;;;8.57;1.95;;;;;;;7.88;68.59;98225.09;5273769;28;20048;-70
2022/11/21 07:29:46;;;;;;;6.35;2.25;;;;;;;7.89;68.29;98219.69;5277713;28;20153;-72
2022/11/21 07:32:35;;;;;;;4.97;1.90;;;;;;;7.95;68.46;98216.47;5270187;28;20200;-70
2022/11/21 07:35:26;;;;;;;8.07;1.80;;;;;;;7.63;68.86;98223.94;5277516;28;20061;-71
2022/11/21 07:38:16;;;;;;;7.75;1.75;;;;;;;7.98;67.07;98204.78;5286388;28;20053;-71
2022/11/21 07:41:06;;;;;;;9.85;2.03;;;;;;;8.05;67.39;98216.41;5286525;28;20493;-71
2022/11/21 07:43:56;;;;;;;11.98;2.40;;;;;;;8.23;65.88;98212.00;5283976;28;20127;-71
2022/11/21 07:46:46;;;;;;;3.63;1.48;;;;;;;8.27;67.32;98211.69;5283118;28;20062;-71
2022/11/21 07:49:36;;;;;;;9.48;1.92;;;;;;;8.10;67.97;98223.88;5274406;28;20094;-72
2022/11/21 07:52:29;;;;;;;9.88;2.65;;;;;;;7.65;68.38;98229.91;5282796;28;20501;-71
2022/11/21 07:55:19;;;;;;;9.50;2.20;;;;;;;8.00;68.10;98235.31;5285151;28;20044;-72
2022/11/21 07:58:11;;;;;;;9.45;1.75;;;;;;;8.11;67.97;98223.75;5283249;28;20516;-72
2022/11/21 08:01:05;;;;;;;10.70;2.30;;;;;;;8.22;66.65;98226.19;5284573;28;20184;-71
2022/11/21 08:03:55;;;;;;;7.60;1.60;;;;;;;7.94;66.44;98188.38;5275759;28;20520;-71
2022/11/21 08:06:45;;;;;;;8.63;1.83;;;;;;;8.65;66.23;98242.38;5279346;28;20422;-73
2022/11/21 08:09:35;;;;;;;8.38;2.10;;;;;;;8.62;66.83;98234.72;5282260;28;20121;-72
2022/11/21 08:12:31;;;;;;;8.07;2.40;;;;;;;8.89;65.66;98239.94;5284974;28;20062;-72
2022/11/21 08:15:21;;;;;;;7.75;2.10;;;;;;;8.78;65.15;98237.53;5283994;28;20061;-71
2022/11/21 08:18:14;;;;;;;8.18;1.73;;;;;;;10.02;61.98;98240.03;5282799;28;20054;-70
2022/11/21 08:21:04;;;;;;;14.75;1.95;;;;;;;10.04;62.35;98230.13;5274544;28;20093;-73
2022/11/21 08:23:55;;;;;;;7.18;1.55;;;;;;;9.74;63.13;98221.72;5271707;28;20051;-72
2022/11/21 08:26:45;;;;;;;9.25;1.67;;;;;;;9.23;64.01;98239.22;5275726;28;20055;-73
2022/11/21 08:29:35;;;;;;;8.60;2.05;;;;;;;9.00;64.89;98219.53;5278163;28;20051;-73
2022/11/21 08:32:25;;;;;;;8.80;1.58;;;;;;;9.16;64.47;98224.94;5275554;28;20131;-73
2022/11/21 08:35:15;;;;;;;5.93;1.55;;;;;;;9.21;63.59;98212.13;5274153;28;20052;-73
2022/11/21 08:38:05;;;;;;;9.02;1.50;;;;;;;9.85;61.15;98210.00;5274442;28;20047;-73
2022/11/21 08:44:07;;;;;;;9.02;1.83;;;;;;;9.52;61.31;98223.06;5278435;28;20512;-73
2022/11/21 08:47:03;;;;;;;6.93;1.88;;;;;;;9.84;62.45;98214.47;5274919;28;20055;-72
2022/11/21 08:49:53;;;;;;;4.47;1.38;;;;;;;9.57;61.43;98217.28;5269540;28;20055;-72
2022/11/21 08:52:43;;;;;;;10.63;1.58;;;;;;;10.14;59.83;98204.34;5272708;28;20445;-73
2022/11/21 08:55:33;;;;;;;11.77;1.58;;;;;;;9.60;60.35;98201.09;5277352;28;20184;-73
2022/11/21 08:58:23;;;;;;;9.25;2.15;;;;;;;10.60;58.91;98198.69;5266174;28;20042;-73
2022/11/21 09:01:13;;;;;;;4.47;1.55;;;;;;;10.50;59.22;98196.19;5273917;28;20055;-73
2022/11/21 09:04:04;;;;;;;8.02;1.30;;;;;;;9.99;59.26;98212.03;5270750;28;20130;-73
2022/11/21 09:06:54;;;;;;;11.32;1.20;;;;;;;9.75;60.70;98210.13;5269878;28;20058;-73
2022/11/21 09:09:44;;;;;;;11.88;1.52;;;;;;;9.53;60.12;98185.00;5279911;28;20070;-73
2022/11/21 09:12:34;;;;;;;13.88;1.98;;;;;;;9.32;61.77;98197.78;5274622;28;20429;-72
2022/11/21 09:18:33;;;;;;;10.85;1.48;;;;;;;8.40;63.73;98201.63;5271978;28;20176;-72
2022/11/21 09:21:23;;;;;;;10.23;1.42;;;;;;;9.36;61.84;98194.66;5275703;28;20123;-72
2022/11/21 09:24:13;;;;;;;12.35;2.25;;;;;;;8.88;62.70;98198.63;5280103;28;20075;-72
2022/11/21 09:27:03;;;;;;;6.68;1.55;;;;;;;9.18;61.70;98192.09;5270859;28;20094;-72
2022/11/21 09:29:53;;;;;;;7.25;1.38;;;;;;;9.62;61.91;98196.50;5267776;28;20078;-73
2022/11/21 09:32:43;;;;;;;7.25;1.05;;;;;;;9.29;61.23;98188.34;5272464;28;20043;-72
2022/11/21 09:35:33;;;;;;;11.73;1.55;;;;;;;8.24;63.38;98178.50;5273466;28;20102;-72
2022/11/21 09:38:25;;;;;;;8.90;1.55;;;;;;;7.95;65.35;98181.31;5272531;28;20579;-72
2022/11/21 09:44:57;;;;;;;8.23;1.77;;;;;;;9.71;61.64;98186.78;5272422;28;20055;-72
2022/11/21 09:47:50;;;;;;;13.48;1.70;;;;;;;9.71;60.47;98187.59;5266551;28;20046;-73
2022/11/21 09:50:46;;;;;;;4.07;1.15;;;;;;;9.89;59.67;98195.47;5275939;28;20067;-72
2022/11/21 09:54:10;;;;;;;5.80;1.90;;;;;;;9.65;61.42;98186.41;5272232;28;20046;-72
2022/11/21 09:57:00;;;;;;;14.38;2.25;;;;;;;9.67;60.48;98183.63;5270928;28;20047;-72
2022/11/21 09:59:51;;;;;;;7.07;1.65;;;;;;;9.84;60.37;98171.28;5266753;28;20047;-72
2022/11/21 10:02:41;;;;;;;9.15;1.77;;;;;;;9.59;59.93;98152.63;5277522;28;20690;-72
2022/11/21 10:05:47;;;;;;;3.75;1.20;;;;;;;9.35;62.29;98163.09;5272390;28;20040;-72
2022/11/21 10:09:07;;;;;;;9.70;1.23;;;;;;;8.66;63.00;98144.41;5274512;28;20067;-72
2022/11/21 10:12:38;;;;;;;9.45;1.58;;;;;;;9.32;63.26;98142.25;5269530;28;20135;-72
2022/11/21 10:15:57;;;;;;;4.95;1.38;;;;;;;9.89;61.61;98135.38;5273985;28;20044;-72
2022/11/21 10:19:19;;;;;;;12.82;2.00;;;;;;;10.25;61.01;98129.84;5266776;28;20131;-72
2022/11/21 10:22:27;;;;;;;8.55;1.63;;;;;;;10.14;60.21;98132.81;5271615;28;20071;-72
2022/11/21 10:25:29;;;;;;;9.55;1.33;;;;;;;9.56;61.35;98115.06;5272389;28;20509;-72
2022/11/21 10:28:40;;;;;;;6.57;1.50;;;;;;;9.51;62.24;98122.66;5271610;28;20065;-72
2022/11/21 10:31:36;;;;;;;5.18;1.30;;;;;;;9.40;61.86;98102.59;5271154;28;20055;-72
2022/11/21 10:34:33;;;;;;;7.50;1.23;;;;;;;10.05;62.10;98105.47;5274735;28;20481;-72
2022/11/21 10:37:34;;;;;;;7.53;1.98;;;;;;;9.49;61.60;98109.59;5275750;28;20421;-72
2022/11/21 10:40:46;;;;;;;5.13;1.27;;;;;;;9.54;61.59;98114.41;5267962;28;20056;-72
2022/11/21 10:47:36;;;;;;;7.13;0.90;;;;;;;7.87;67.43;98113.41;5271907;28;20047;-72
2022/11/21 10:50:42;;;;;;;5.55;0.88;;;;;;;7.73;69.09;98109.47;5275677;28;20590;-72
2022/11/21 10:56:41;;;;;;;2.65;1.00;;;;;;;8.06;68.34;98101.91;5272961;28;20570;-72
2022/11/21 10:59:31;;;;;;;5.18;1.27;;;;;;;8.61;67.56;98103.56;5272383;28;20086;-72
2022/11/21 11:02:23;;;;;;;6.88;1.50;;;;;;;8.81;67.66;98083.94;5273915;28;20044;-72
2022/11/21 11:05:13;;;;;;;4.07;1.15;;;;;;;8.83;67.83;98070.53;5274201;28;20078;-73
2022/11/21 11:08:11;;;;;;;4.07;1.10;;;;;;;8.83;67.31;98058.16;5272178;28;20136;-73
2022/11/21 11:11:03;;;;;;;4.57;0.77;;;;;;;9.02;65.61;98062.41;5267303;28;20418;-72
2022/11/21 11:13:59;;;;;;;2.50;0.80;;;;;;;9.14;67.31;98049.75;5271049;28;20044;-72
2022/11/21 11:16:50;;;;;;;3.10;0.60;;;;;;;9.17;67.33;98044.97;5271015;28;20050;-73
2022/11/21 11:19:59;;;;;;;4.45;0.85;;;;;;;9.22;67.23;98030.44;5274061;28;20599;-73
2022/11/21 11:22:49;;;;;;;4.68;0.77;;;;;;;9.26;66.69;98029.94;5276260;28;20050;-72
2022/11/21 11:25:45;;;;;;;3.20;0.63;;;;;;;9.34;66.21;98030.00;5276316;28;20525;-72
2022/11/21 11:28:36;;;;;;;4.43;1.30;;;;;;;9.36;66.58;98022.72;5278978;28;20056;-72
2022/11/21 11:31:39;;;;;;;6.60;1.90;;;;;;;9.34;66.64;98002.72;5276294;28;20063;-73
2022/11/21 11:34:36;;;;;;;7.95;1.88;;;;;;;9.44;65.19;98003.41;5279149;28;20235;-73
2022/11/21 11:37:36;;;;;;;2.03;1.10;;;;;;;9.36;64.73;97998.91;5280541;28;20505;-73
2022/11/21 11:40:38;;;;;;;3.17;0.90;;;;;;;9.16;65.11;97982.47;5273260;28;20055;-73
2022/11/21 11:47:31;;;;;;;1.25;0.50;;;;;;;9.65;65.87;97989.72;5276689;28;20044;-73
2022/11/21 11:50:36;;;;;;;2.80;0.50;;;;;;;9.85;62.89;97992.91;5280591;28;20083;-73
2022/11/21 11:53:32;;;;;;;1.00;0.43;;;;;;;9.59;63.22;97967.38;5272983;28;20164;-73
2022/11/21 11:56:41;;;;;;;1.65;0.70;;;;;;;9.60;61.58;97981.44;5278648;28;20051;-73
2022/11/21 11:59:38;;;;;;;4.80;0.90;;;;;;;9.48;60.83;97959.75;5279897;28;20055;-73
2022/11/21 12:02:57;;;;;;;5.05;1.45;;;;;;;9.71;61.23;97965.25;5275836;28;20051;-73
2022/11/21 12:05:58;;;;;;;3.60;0.95;;;;;;;9.50;62.59;97943.69;5271748;28;20150;-73
2022/11/21 12:08:56;;;;;;;7.70;1.40;;;;;;;9.66;61.76;97956.97;5270684;28;20452;-73
2022/11/21 12:12:10;;;;;;;4.07;0.55;;;;;;;9.56;62.25;97949.16;5282291;28;20054;-73
2022/11/21 12:18:46;;;;;;;5.10;0.80;;;;;;;9.34;63.23;97941.88;5276646;28;20520;-73
2022/11/21 12:21:36;;;;;;;2.65;0.43;;;;;;;9.78;62.36;97939.78;5275897;28;20152;-73
2022/11/21 12:24:27;;;;;;;1.00;0.40;;;;;;;9.79;61.79;97927.38;5275097;28;20559;-73
2022/11/21 12:27:29;;;;;;;3.95;0.50;;;;;;;10.06;60.46;97916.44;5273928;28;20071;-73
2022/11/21 12:30:43;;;;;;;3.05;0.60;;;;;;;10.09;61.85;97912.63;5277242;28;20067;-73
2022/11/21 12:33:40;;;;;;;5.93;1.08;;;;;;;10.10;60.60;97906.34;5277342;28;20048;-73
2022/11/21 12:36:59;;;;;;;3.83;0.57;;;;;;;10.15;60.72;97904.00;5275940;28;20059;-73
2022/11/21 12:39:58;;;;;;;2.35;0.73;;;;;;;10.00;61.04;97903.03;5266586;28;20377;-73
2022/11/21 12:43:03;;;;;;;2.83;0.80;;;;;;;9.73;62.86;97899.72;5267957;28;20647;-73
2022/11/21 12:46:15;;;;;;;4.18;0.80;;;;;;;9.65;63.96;97883.84;5275515;28;20082;-72
2022/11/21 12:55:46;;;;;;;4.30;1.10;;;;;;;9.96;65.30;97878.69;5278462;28;20097;-72
2022/11/21 12:58:43;;;;;;;5.47;1.13;;;;;;;10.10;64.71;97870.09;5277177;28;20066;-72
2022/11/21 13:01:59;;;;;;;4.55;0.95;;;;;;;10.10;64.15;97854.19;5273010;28;20081;-72
2022/11/21 13:04:50;;;;;;;5.57;1.33;;;;;;;9.99;63.96;97843.94;5272760;28;20046;-73
2022/11/21 13:07:40;;;;;;;7.22;1.45;;;;;;;10.06;64.68;97838.78;5278836;28;20506;-73
2022/11/21 13:10:35;;;;;;;4.03;1.55;;;;;;;10.15;64.75;97823.72;5275346;28;20664;-72
2022/11/21 13:13:30;;;;;;;;;;;;;;;10.25;65.04;97830.47;5278725;28;20062;-73
2022/11/21 13:16:38;;;;;;;9.50;1.33;;;;;;;10.42;64.42;97819.84;5277259;28;19926;-72
2022/11/21 13:19:40;;;;;;;3.90;1.25;;;;;;;10.17;64.86;97821.75;5273168;28;20096;-72
2022/11/21 13:22:36;;;;;;;6.55;1.05;;;;;;;9.85;66.68;97807.56;5274614;28;20486;-72
2022/11/21 13:25:32;;;;;;;3.95;1.08;;;;;;;10.14;65.33;97809.66;5271844;28;20336;-72
2022/11/21 13:28:29;;;;;;;4.47;0.98;;;;;;;10.22;63.45;97803.50;5276673;28;20119;-73
2022/11/21 13:31:28;;;;;;;3.58;0.82;;;;;;;10.08;63.72;97791.78;5278814;28;20046;-72
2022/11/21 13:34:30;;;;;;;5.50;0.90;;;;;;;10.16;64.31;97791.75;5279836;28;20180;-72
2022/11/21 13:38:01;;;;;;;4.93;1.48;;;;;;;10.24;63.32;97791.75;5273852;28;20054;-73
2022/11/21 13:44:32;;;;;;;4.00;1.00;;;;;;;10.53;60.82;97795.66;5278237;28;20047;-72
2022/11/21 13:47:25;;;;;;;6.25;0.90;;;;;;;10.51;62.04;97787.03;5280102;28;20040;-72
2022/11/21 13:50:21;;;;;;;5.60;1.00;;;;;;;10.41;63.04;97781.13;5276813;28;20043;-72
2022/11/21 13:53:28;;;;;;;5.22;0.90;;;;;;;10.39;62.40;97772.50;5277871;28;20044;-73
2022/11/21 13:57:12;;;;;;;7.80;1.20;;;;;;;10.40;63.14;97766.19;5274017;28;20054;-72
2022/11/21 14:00:22;;;;;;;4.28;1.00;;;;;;;10.27;63.70;97754.34;5233912;28;20082;-72
2022/11/21 14:03:48;;;;;;;6.68;1.17;;;;;;;10.35;63.46;97756.94;5273265;28;20062;-72
2022/11/21 14:06:42;;;;;;;2.25;0.85;;;;;;;10.32;63.47;97746.69;5276215;28;20200;-73
2022/11/21 14:09:45;;;;;;;3.47;0.90;;;;;;;10.31;63.69;97752.19;5274620;28;20048;-72
2022/11/21 14:12:39;;;;;;;10.02;1.40;;;;;;;10.26;63.47;97736.78;5276081;28;20063;-73
2022/11/21 14:15:59;;;;;;;5.28;1.30;;;;;;;10.22;64.11;97732.81;5275527;28;20097;-72
2022/11/21 14:18:49;;;;;;;4.55;1.00;;;;;;;10.11;64.17;97725.25;5270214;28;20149;-72
2022/11/21 14:21:39;;;;;;;8.45;1.25;;;;;;;10.09;64.24;97721.94;5276088;28;20097;-73
2022/11/21 14:24:29;;;;;;;4.22;1.00;;;;;;;9.97;64.54;97708.25;5275676;28;20594;-72
2022/11/21 14:27:30;;;;;;;13.48;4.38;;;;;;;9.93;64.23;97704.28;5276983;28;20093;-72